Time;durP1;ratioP1;P1;durP2;ratioP2;P2;SDS_P1;SDS_P2;PMS_P1;PMS_P2;Temp;Humidity;BMP_temperature;BMP_pressure;BME280_temperature;BME280_humidity;BME280_pressure;Samples;Min_cycle;Max_cycle;Signal;HPM_P1;HPM_P2
2023/05/28 00:01:55;;;;;;;;;;;20.40;52.00;;;;;;5056473;28;19971;-77
2023/05/28 00:04:24;;;;;;;;;;;20.40;52.10;;;;;;5068405;28;19975;-78
2023/05/28 00:06:52;;;;;;;;;;;20.40;52.70;;;;;;5062680;28;20673;-79
2023/05/28 00:09:19;;;;;;;;;;;20.30;52.20;;;;;;5064059;28;19960;-77
2023/05/28 00:11:46;;;;;;;;;;;20.30;52.40;;;;;;5069556;28;19928;-78
2023/05/28 00:14:12;;;;;;;;;;;20.20;52.40;;;;;;5061553;28;20417;-78
2023/05/28 00:16:43;;;;;;;;;;;20.20;52.50;;;;;;5069399;28;20012;-77
2023/05/28 00:19:09;;;;;;;;;;;20.20;52.50;;;;;;5060211;28;19933;-78
2023/05/28 00:21:36;;;;;;;;;;;20.10;52.50;;;;;;5062745;28;19933;-77
2023/05/28 00:24:02;;;;;;;;;;;20.10;52.70;;;;;;5058811;28;19935;-77
2023/05/28 00:26:29;;;;;;;;;;;20.10;52.80;;;;;;5063528;28;19932;-77
2023/05/28 00:28:56;;;;;;;;;;;20.00;52.70;;;;;;5061326;28;19939;-77
2023/05/28 00:31:22;;;;;;;;;;;20.00;52.90;;;;;;5064502;28;19940;-81
2023/05/28 00:33:50;;;;;;;;;;;20.00;53.00;;;;;;5067396;28;19928;-78
2023/05/28 00:36:17;;;;;;;;;;;19.90;53.00;;;;;;5063164;28;19979;-78
2023/05/28 00:38:43;;;;;;;;;;;19.90;53.20;;;;;;5064054;28;20494;-78
2023/05/28 00:41:10;;;;;;;;;;;19.80;53.00;;;;;;5065823;28;19940;-78
2023/05/28 00:43:36;;;;;;;;;;;19.80;53.20;;;;;;5061535;28;20325;-78
2023/05/28 00:46:04;;;;;;;;;;;19.70;53.20;;;;;;5065302;28;19928;-77
2023/05/28 00:48:31;;;;;;;;;;;19.70;53.40;;;;;;5064894;28;19935;-78
2023/05/28 00:50:58;;;;;;;;;;;19.70;53.40;;;;;;5061081;28;19933;-77
2023/05/28 00:53:25;;;;;;;;;;;19.70;53.40;;;;;;5064439;28;19928;-78
2023/05/28 00:55:53;;;;;;;;;;;19.60;53.50;;;;;;5065728;28;19928;-77
2023/05/28 00:58:20;;;;;;;;;;;19.60;53.50;;;;;;5060027;28;20611;-77
2023/05/28 01:00:47;;;;;;;;;;;19.50;53.60;;;;;;5059034;28;19932;-78
2023/05/28 01:03:13;;;;;;;;;;;19.50;53.60;;;;;;5067120;28;19928;-78
2023/05/28 01:05:40;;;;;;;;;;;19.50;53.60;;;;;;5065465;28;19932;-77
2023/05/28 01:08:08;;;;;;;;;;;19.40;53.60;;;;;;5070056;28;19932;-78
2023/05/28 01:10:35;;;;;;;;;;;19.40;53.60;;;;;;5069141;28;19935;-77
2023/05/28 01:13:03;;;;;;;;;;;19.40;53.60;;;;;;5064431;28;20631;-77
2023/05/28 01:15:29;;;;;;;;;;;19.30;53.70;;;;;;5066256;28;20628;-77
2023/05/28 01:17:58;;;;;;;;;;;19.30;53.70;;;;;;5076928;28;19939;-79
2023/05/28 01:20:25;;;;;;;;;;;19.30;53.80;;;;;;5070385;28;19976;-78
2023/05/28 01:22:55;;;;;;;;;;;19.30;53.80;;;;;;5068007;28;19928;-78
2023/05/28 01:25:23;;;;;;;;;;;19.20;53.90;;;;;;5064326;28;20314;-77
2023/05/28 01:27:50;;;;;;;;;;;19.20;53.90;;;;;;5065753;28;20508;-78
2023/05/28 01:30:16;;;;;;;;;;;19.20;54.00;;;;;;5066294;28;20031;-77
2023/05/28 01:32:43;;;;;;;;;;;19.20;53.90;;;;;;5053940;28;19928;-78
2023/05/28 01:35:10;;;;;;;;;;;19.10;54.00;;;;;;5058675;28;20758;-78
2023/05/28 01:37:38;;;;;;;;;;;19.10;54.20;;;;;;5058815;28;20023;-77
2023/05/28 01:40:06;;;;;;;;;;;19.00;54.20;;;;;;5058904;28;19928;-78
2023/05/28 01:42:35;;;;;;;;;;;19.00;54.10;;;;;;5055884;28;19990;-77
2023/05/28 01:45:02;;;;;;;;;;;19.00;54.80;;;;;;5055965;28;19940;-77
2023/05/28 01:47:29;;;;;;;;;;;18.90;54.20;;;;;;5061851;28;20501;-77
2023/05/28 01:49:56;;;;;;;;;;;18.90;54.30;;;;;;5060937;28;20476;-78
2023/05/28 01:52:23;;;;;;;;;;;18.90;54.40;;;;;;5061953;28;19979;-77
2023/05/28 01:54:49;;;;;;;;;;;18.90;54.50;;;;;;5062155;28;19943;-77
2023/05/28 01:57:16;;;;;;;;;;;18.90;54.60;;;;;;5063113;28;19928;-78
2023/05/28 01:59:44;;;;;;;;;;;18.80;54.50;;;;;;5056205;28;19968;-79
2023/05/28 02:02:10;;;;;;;;;;;18.80;54.60;;;;;;5056516;28;21827;-76
2023/05/28 02:04:37;;;;;;;;;;;18.70;54.60;;;;;;5060295;28;20539;-77
2023/05/28 02:07:04;;;;;;;;;;;18.70;54.80;;;;;;5058671;28;20394;-77
2023/05/28 02:09:31;;;;;;;;;;;18.70;54.80;;;;;;5055083;28;19968;-77
2023/05/28 02:11:59;;;;;;;;;;;18.70;54.80;;;;;;5064010;28;19933;-78
2023/05/28 02:14:25;;;;;;;;;;;18.60;54.90;;;;;;5060115;28;19939;-78
2023/05/28 02:16:53;;;;;;;;;;;18.60;55.00;;;;;;5054064;28;19928;-77
2023/05/28 02:19:20;;;;;;;;;;;18.60;55.10;;;;;;5062496;28;19936;-79
2023/05/28 02:21:47;;;;;;;;;;;18.60;55.20;;;;;;5057251;28;19940;-78
2023/05/28 02:24:13;;;;;;;;;;;18.50;55.30;;;;;;5067614;28;19928;-78
2023/05/28 02:26:40;;;;;;;;;;;18.50;55.30;;;;;;5065923;28;19935;-78
2023/05/28 02:29:06;;;;;;;;;;;18.50;55.30;;;;;;5054327;28;19932;-77
2023/05/28 02:31:33;;;;;;;;;;;18.50;55.40;;;;;;5057857;28;19932;-77
2023/05/28 02:34:01;;;;;;;;;;;18.40;55.50;;;;;;5059205;28;19932;-77
2023/05/28 02:36:29;;;;;;;;;;;18.40;55.60;;;;;;5055748;28;19932;-78
2023/05/28 02:38:56;;;;;;;;;;;18.40;55.60;;;;;;5060277;28;19948;-78
2023/05/28 02:41:22;;;;;;;;;;;18.40;55.70;;;;;;5056884;28;20406;-79
2023/05/28 02:43:49;;;;;;;;;;;18.30;55.70;;;;;;5059536;28;19943;-78
2023/05/28 02:46:16;;;;;;;;;;;18.30;55.70;;;;;;5053579;28;19932;-78
2023/05/28 02:48:43;;;;;;;;;;;18.30;55.80;;;;;;5055333;28;19983;-77
2023/05/28 02:51:11;;;;;;;;;;;18.20;55.90;;;;;;5054668;28;19979;-77
2023/05/28 02:53:37;;;;;;;;;;;18.20;56.00;;;;;;5058890;28;19987;-77
2023/05/28 02:56:04;;;;;;;;;;;18.20;56.00;;;;;;5056205;28;20402;-78
2023/05/28 02:58:32;;;;;;;;;;;18.10;56.20;;;;;;5058053;28;20478;-77
2023/05/28 03:00:58;;;;;;;;;;;18.20;56.20;;;;;;5052951;28;20406;-78
2023/05/28 03:03:25;;;;;;;;;;;18.10;56.30;;;;;;5061572;28;19967;-77
2023/05/28 03:05:51;;;;;;;;;;;18.10;56.30;;;;;;5066582;28;20318;-77
2023/05/28 03:08:20;;;;;;;;;;;18.10;56.50;;;;;;5065408;28;20023;-77
2023/05/28 03:10:46;;;;;;;;;;;18.00;56.50;;;;;;5064103;28;19933;-77
2023/05/28 03:13:13;;;;;;;;;;;18.00;56.60;;;;;;5068835;28;19932;-78
2023/05/28 03:15:39;;;;;;;;;;;17.90;56.60;;;;;;5064675;28;19928;-78
2023/05/28 03:18:06;;;;;;;;;;;17.90;56.70;;;;;;5060651;28;19929;-79
2023/05/28 03:20:33;;;;;;;;;;;17.90;56.80;;;;;;5059157;28;19935;-77
2023/05/28 03:22:59;;;;;;;;;;;17.90;56.90;;;;;;5064813;28;19928;-78
2023/05/28 03:25:27;;;;;;;;;;;17.80;56.90;;;;;;5062525;28;19932;-77
2023/05/28 03:27:54;;;;;;;;;;;17.80;56.90;;;;;;5065232;28;19928;-78
2023/05/28 03:30:21;;;;;;;;;;;17.80;57.00;;;;;;5061232;28;19929;-78
2023/05/28 03:32:47;;;;;;;;;;;17.80;57.00;;;;;;5066456;28;19928;-77
2023/05/28 03:35:14;;;;;;;;;;;17.70;57.10;;;;;;5062902;28;19929;-78
2023/05/28 03:37:41;;;;;;;;;;;17.70;57.10;;;;;;5062127;28;19929;-78
2023/05/28 03:40:08;;;;;;;;;;;17.70;57.20;;;;;;5064037;28;19935;-77
2023/05/28 03:42:36;;;;;;;;;;;17.60;57.20;;;;;;5053864;28;19928;-78
2023/05/28 03:45:03;;;;;;;;;;;17.60;57.30;;;;;;5062711;28;19929;-77
2023/05/28 03:47:31;;;;;;;;;;;17.60;57.30;;;;;;5054959;28;19933;-78
2023/05/28 03:49:59;;;;;;;;;;;17.50;57.30;;;;;;5054967;28;19939;-78
2023/05/28 03:52:25;;;;;;;;;;;17.50;57.30;;;;;;5058837;28;20075;-78
2023/05/28 03:54:52;;;;;;;;;;;17.50;57.50;;;;;;5057340;28;19932;-78
2023/05/28 03:57:18;;;;;;;;;;;17.50;57.60;;;;;;5057957;28;19950;-79
2023/05/28 03:59:46;;;;;;;;;;;17.40;57.50;;;;;;5057911;28;19933;-77
2023/05/28 04:02:13;;;;;;;;;;;17.40;57.60;;;;;;5062605;28;19936;-78
2023/05/28 04:04:39;;;;;;;;;;;17.40;57.70;;;;;;5061430;28;19955;-77
2023/05/28 04:07:07;;;;;;;;;;;17.40;57.70;;;;;;5057321;28;20298;-78
2023/05/28 04:09:33;;;;;;;;;;;17.30;57.80;;;;;;5060529;28;20524;-78
2023/05/28 04:12:00;;;;;;;;;;;17.30;57.80;;;;;;5060195;28;19933;-78
2023/05/28 04:14:27;;;;;;;;;;;17.30;57.90;;;;;;5056824;28;20010;-78
2023/05/28 04:16:55;;;;;;;;;;;17.30;58.00;;;;;;5056319;28;19962;-78
2023/05/28 04:19:21;;;;;;;;;;;17.20;58.10;;;;;;5056551;28;19928;-78
2023/05/28 04:21:48;;;;;;;;;;;17.20;58.10;;;;;;5052666;28;19936;-77
2023/05/28 04:24:14;;;;;;;;;;;17.20;58.20;;;;;;5056835;28;19936;-78
2023/05/28 04:26:41;;;;;;;;;;;17.20;58.30;;;;;;5064099;28;20010;-78
2023/05/28 04:29:08;;;;;;;;;;;17.20;58.30;;;;;;5061108;28;19936;-78
2023/05/28 04:31:35;;;;;;;;;;;17.10;58.40;;;;;;5061065;28;19968;-78
2023/05/28 04:34:04;;;;;;;;;;;17.10;58.50;;;;;;5061288;28;19929;-78
2023/05/28 04:36:33;;;;;;;;;;;17.10;58.50;;;;;;5057463;28;19935;-77
2023/05/28 04:39:03;;;;;;;;;;;17.10;58.50;;;;;;5060463;28;19935;-80
2023/05/28 04:41:30;;;;;;;;;;;17.00;58.60;;;;;;5056338;28;19932;-78
2023/05/28 04:43:57;;;;;;;;;;;17.00;58.70;;;;;;5058781;28;19943;-78
2023/05/28 04:46:25;;;;;;;;;;;17.00;58.70;;;;;;5063290;28;20046;-77
2023/05/28 04:48:52;;;;;;;;;;;17.00;58.80;;;;;;5063599;28;19928;-79
2023/05/28 04:51:20;;;;;;;;;;;17.00;59.00;;;;;;5061665;28;19940;-77
2023/05/28 04:53:47;;;;;;;;;;;17.00;59.00;;;;;;5061216;28;20023;-78
2023/05/28 04:56:14;;;;;;;;;;;16.90;59.10;;;;;;5057272;28;19944;-77
2023/05/28 04:58:40;;;;;;;;;;;16.90;59.10;;;;;;5059176;28;20361;-78
2023/05/28 05:01:07;;;;;;;;;;;16.90;59.30;;;;;;5057178;28;19932;-78
2023/05/28 05:03:34;;;;;;;;;;;16.90;59.40;;;;;;5059475;28;19928;-78
2023/05/28 05:06:01;;;;;;;;;;;16.90;59.50;;;;;;5059071;28;19936;-78
2023/05/28 05:08:29;;;;;;;;;;;16.80;59.60;;;;;;5067131;28;19935;-78
2023/05/28 05:10:56;;;;;;;;;;;16.80;59.60;;;;;;5060674;28;19969;-78
2023/05/28 05:13:23;;;;;;;;;;;16.80;59.80;;;;;;5055136;28;19928;-78
2023/05/28 05:15:50;;;;;;;;;;;16.80;59.80;;;;;;5062824;28;19939;-77
2023/05/28 05:18:16;;;;;;;;;;;16.80;59.90;;;;;;5068016;28;19979;-77
2023/05/28 05:20:43;;;;;;;;;;;16.80;59.90;;;;;;5062588;28;19928;-78
2023/05/28 05:23:09;;;;;;;;;;;16.80;60.00;;;;;;5070762;28;19983;-78
2023/05/28 05:25:37;;;;;;;;;;;16.70;59.90;;;;;;5052354;28;20002;-78
2023/05/28 05:28:04;;;;;;;;;;;16.70;59.90;;;;;;5056189;28;19956;-78
2023/05/28 05:30:30;;;;;;;;;;;16.70;59.90;;;;;;5057476;28;20306;-78
2023/05/28 05:32:57;;;;;;;;;;;16.70;59.90;;;;;;5056022;28;20023;-79
2023/05/28 05:35:24;;;;;;;;;;;16.70;60.00;;;;;;5053013;28;19929;-78
2023/05/28 05:37:50;;;;;;;;;;;16.70;60.00;;;;;;5057278;28;19972;-78
2023/05/28 05:40:19;;;;;;;;;;;16.70;60.00;;;;;;5053977;28;21284;-77
2023/05/28 05:42:46;;;;;;;;;;;16.60;59.90;;;;;;5056268;28;19940;-78
2023/05/28 05:45:13;;;;;;;;;;;16.70;60.00;;;;;;5052052;28;19928;-77
2023/05/28 05:47:40;;;;;;;;;;;16.70;59.90;;;;;;5057994;28;19929;-79
2023/05/28 05:50:07;;;;;;;;;;;16.70;59.90;;;;;;5052593;28;20577;-78
2023/05/28 05:52:33;;;;;;;;;;;16.70;59.90;;;;;;5058769;28;19929;-77
2023/05/28 05:55:00;;;;;;;;;;;16.60;59.80;;;;;;5054970;28;19936;-78
2023/05/28 05:57:26;;;;;;;;;;;16.70;59.90;;;;;;5056348;28;19932;-77
2023/05/28 05:59:54;;;;;;;;;;;16.70;59.80;;;;;;5051923;28;19935;-80
2023/05/28 06:02:21;;;;;;;;;;;16.70;59.80;;;;;;5054584;28;20050;-79
2023/05/28 06:04:47;;;;;;;;;;;16.70;59.80;;;;;;5059142;28;20331;-69
2023/05/28 06:07:14;;;;;;;;;;;16.70;59.80;;;;;;5051624;28;19936;-70
2023/05/28 06:09:40;;;;;;;;;;;16.70;59.80;;;;;;5053412;28;19928;-69
2023/05/28 06:12:07;;;;;;;;;;;16.70;59.80;;;;;;5057932;28;19935;-70
2023/05/28 06:14:34;;;;;;;;;;;16.70;59.80;;;;;;5056361;28;19928;-70
2023/05/28 06:17:02;;;;;;;;;;;16.70;59.80;;;;;;5055122;28;19935;-69
2023/05/28 06:19:29;;;;;;;;;;;16.70;59.90;;;;;;5055730;28;20313;-70
2023/05/28 06:21:56;;;;;;;;;;;16.70;59.80;;;;;;5052129;28;19935;-70
2023/05/28 06:24:23;;;;;;;;;;;16.70;59.80;;;;;;5059904;28;19928;-70
2023/05/28 06:26:49;;;;;;;;;;;16.70;59.80;;;;;;5052789;28;19940;-70
2023/05/28 06:29:16;;;;;;;;;;;16.70;59.80;;;;;;5058433;28;19928;-70
2023/05/28 06:31:43;;;;;;;;;;;16.70;59.80;;;;;;5053373;28;20460;-70
2023/05/28 06:34:11;;;;;;;;;;;16.70;59.70;;;;;;5052165;28;19929;-75
2023/05/28 06:36:38;;;;;;;;;;;16.80;59.80;;;;;;5053569;28;19929;-75
2023/05/28 06:39:05;;;;;;;;;;;16.70;59.70;;;;;;5052560;28;19928;-75
2023/05/28 06:41:31;;;;;;;;;;;16.70;59.70;;;;;;5055791;28;20047;-75
2023/05/28 06:43:58;;;;;;;;;;;16.80;59.80;;;;;;5049604;28;19933;-75
2023/05/28 06:46:27;;;;;;;;;;;16.80;59.70;;;;;;5054043;28;20529;-75
2023/05/28 06:48:54;;;;;;;;;;;16.80;59.70;;;;;;5049455;28;19928;-76
2023/05/28 06:51:22;;;;;;;;;;;16.80;59.70;;;;;;5053642;28;19932;-75
2023/05/28 06:53:48;;;;;;;;;;;16.80;59.70;;;;;;5056998;28;19929;-75
2023/05/28 06:56:15;;;;;;;;;;;16.80;59.80;;;;;;5052426;28;19932;-75
2023/05/28 06:58:41;;;;;;;;;;;16.80;59.70;;;;;;5044368;28;19928;-75
2023/05/28 07:01:08;;;;;;;;;;;16.80;59.80;;;;;;5055583;28;20305;-75
2023/05/28 07:03:35;;;;;;;;;;;16.90;59.70;;;;;;5046660;28;19935;-75
2023/05/28 07:06:01;;;;;;;;;;;16.90;59.70;;;;;;5043423;28;19928;-75
2023/05/28 07:08:29;;;;;;;;;;;16.90;59.70;;;;;;5056502;28;19939;-75
2023/05/28 07:10:56;;;;;;;;;;;16.90;59.70;;;;;;5052905;28;19940;-75
2023/05/28 07:13:22;;;;;;;;;;;16.90;59.60;;;;;;5055576;28;19936;-70
2023/05/28 07:15:50;;;;;;;;;;;16.90;59.60;;;;;;5052030;28;19963;-69
2023/05/28 07:18:16;;;;;;;;;;;16.90;59.70;;;;;;5059626;28;19928;-68
2023/05/28 07:20:43;;;;;;;;;;;16.90;59.70;;;;;;5053789;28;20481;-70
2023/05/28 07:23:11;;;;;;;;;;;17.00;59.70;;;;;;5055691;28;20381;-69
2023/05/28 07:25:39;;;;;;;;;;;17.00;59.70;;;;;;5049508;28;19935;-69
2023/05/28 07:28:05;;;;;;;;;;;17.00;59.70;;;;;;5057000;28;19928;-70
2023/05/28 07:30:32;;;;;;;;;;;17.00;59.60;;;;;;5054593;28;20100;-70
2023/05/28 07:32:58;;;;;;;;;;;17.10;59.70;;;;;;5056371;28;20429;-70
2023/05/28 07:35:25;;;;;;;;;;;17.10;59.70;;;;;;5053400;28;19928;-70
2023/05/28 07:37:52;;;;;;;;;;;17.10;59.70;;;;;;5059437;28;19936;-71
2023/05/28 07:40:19;;;;;;;;;;;17.10;59.60;;;;;;5053390;28;19990;-69
2023/05/28 07:42:47;;;;;;;;;;;17.10;59.60;;;;;;5051007;28;20503;-70
2023/05/28 07:45:14;;;;;;;;;;;17.10;59.50;;;;;;5048242;28;19959;-70
2023/05/28 07:47:40;;;;;;;;;;;17.20;59.60;;;;;;5050157;28;20490;-70
2023/05/28 07:50:09;;;;;;;;;;;17.20;59.70;;;;;;5053132;28;19933;-69
2023/05/28 07:52:35;;;;;;;;;;;17.20;59.70;;;;;;5054449;28;19951;-71
2023/05/28 07:55:03;;;;;;;;;;;17.20;59.60;;;;;;5050880;28;19928;-69
2023/05/28 07:57:29;;;;;;;;;;;17.20;59.60;;;;;;5052956;28;20022;-71
2023/05/28 07:59:57;;;;;;;;;;;17.30;59.60;;;;;;5056155;28;19928;-69
2023/05/28 08:02:24;;;;;;;;;;;17.30;59.60;;;;;;5051373;28;19937;-70
2023/05/28 08:04:50;;;;;;;;;;;17.30;59.60;;;;;;5046504;28;19929;-70
2023/05/28 08:07:17;;;;;;;;;;;17.30;59.60;;;;;;5056606;28;19934;-70
2023/05/28 08:09:43;;;;;;;;;;;17.40;59.60;;;;;;5045629;28;19936;-70
2023/05/28 08:12:10;;;;;;;;;;;17.40;59.50;;;;;;5050212;28;19933;-70
2023/05/28 08:14:36;;;;;;;;;;;17.40;59.30;;;;;;5053947;28;19983;-70
2023/05/28 08:17:04;;;;;;;;;;;17.40;59.30;;;;;;5055044;28;20319;-69
2023/05/28 08:19:31;;;;;;;;;;;17.50;59.30;;;;;;5054787;28;19936;-67
2023/05/28 08:21:58;;;;;;;;;;;17.50;59.30;;;;;;5052319;28;19935;-70
2023/05/28 08:24:24;;;;;;;;;;;17.50;59.20;;;;;;5060336;28;19928;-70
2023/05/28 08:26:51;;;;;;;;;;;17.60;59.10;;;;;;5054703;28;19928;-70
2023/05/28 08:29:17;;;;;;;;;;;17.60;58.90;;;;;;5059331;28;19924;-70
2023/05/28 08:31:44;;;;;;;;;;;17.60;58.90;;;;;;5052132;28;20018;-70
2023/05/28 08:34:12;;;;;;;;;;;17.60;58.90;;;;;;5054654;28;20588;-72
2023/05/28 08:36:39;;;;;;;;;;;17.70;59.00;;;;;;5052553;28;19928;-70
2023/05/28 08:39:07;;;;;;;;;;;17.80;59.20;;;;;;5055335;28;19932;-71
2023/05/28 08:41:34;;;;;;;;;;;18.10;58.50;;;;;;5057017;28;20014;-69
2023/05/28 08:44:01;;;;;;;;;;;18.20;58.00;;;;;;5057584;28;19932;-71
2023/05/28 08:46:28;;;;;;;;;;;18.30;58.10;;;;;;5057661;28;19933;-70
2023/05/28 08:48:54;;;;;;;;;;;18.20;58.10;;;;;;5052410;28;19967;-70
2023/05/28 08:51:25;;;;;;;;;;;18.20;58.20;;;;;;5054864;28;19932;-71
2023/05/28 08:53:52;;;;;;;;;;;18.20;58.40;;;;;;5055155;28;19967;-71
2023/05/28 08:56:20;;;;;;;;;;;18.20;58.50;;;;;;5060751;28;19936;-70
2023/05/28 08:58:47;;;;;;;;;;;18.20;58.50;;;;;;5058687;28;19928;-70
2023/05/28 09:01:14;;;;;;;;;;;18.20;58.50;;;;;;5057009;28;20463;-70
2023/05/28 09:03:41;;;;;;;;;;;18.20;58.50;;;;;;5055793;28;19932;-69
2023/05/28 09:06:08;;;;;;;;;;;18.30;58.50;;;;;;5055642;28;19963;-70
2023/05/28 09:08:36;;;;;;;;;;;18.30;58.50;;;;;;5054948;28;20500;-70
2023/05/28 09:11:09;;;;;;;;;;;18.30;58.50;;;;;;5053685;28;19929;-70
2023/05/28 09:13:36;;;;;;;;;;;18.40;58.60;;;;;;5054628;28;19928;-71
2023/05/28 09:16:02;;;;;;;;;;;18.40;58.50;;;;;;5053789;28;19936;-72
2023/05/28 09:18:29;;;;;;;;;;;18.40;58.50;;;;;;5062328;28;19928;-71
2023/05/28 09:21:00;;;;;;;;;;;18.50;58.50;;;;;;5056249;28;19929;-71
2023/05/28 09:23:28;;;;;;;;;;;18.50;58.50;;;;;;5065474;28;20773;-71
2023/05/28 09:25:57;;;;;;;;;;;18.60;58.40;;;;;;5058229;28;20039;-71
2023/05/28 09:28:26;;;;;;;;;;;18.60;58.10;;;;;;5058106;28;20343;-69
2023/05/28 09:30:53;;;;;;;;;;;18.80;58.00;;;;;;5050183;28;19932;-72
2023/05/28 09:33:19;;;;;;;;;;;18.80;57.90;;;;;;5051074;28;19932;-70
2023/05/28 09:35:57;;;;;;;;;;;18.90;57.90;;;;;;5055746;28;19928;-70
2023/05/28 09:38:26;;;;;;;;;;;19.00;58.00;;;;;;5052509;28;19976;-70
2023/05/28 09:40:54;;;;;;;;;;;19.00;58.50;;;;;;5059641;28;20027;-70
2023/05/28 09:43:27;;;;;;;;;;;19.10;57.90;;;;;;5057862;28;19932;-70
2023/05/28 09:45:54;;;;;;;;;;;19.20;57.80;;;;;;5059477;28;19924;-70
2023/05/28 09:48:20;;;;;;;;;;;19.20;57.70;;;;;;5067245;28;20417;-71
2023/05/28 09:50:47;;;;;;;;;;;19.30;57.70;;;;;;5049948;28;19955;-70
2023/05/28 09:53:16;;;;;;;;;;;19.30;57.40;;;;;;5056203;28;19933;-71
2023/05/28 09:55:43;;;;;;;;;;;19.40;57.20;;;;;;5063581;28;19924;-70
2023/05/28 09:58:10;;;;;;;;;;;19.50;57.20;;;;;;5057455;28;19924;-70
2023/05/28 10:00:42;;;;;;;;;;;19.50;57.00;;;;;;5055404;28;19960;-71
2023/05/28 10:03:12;;;;;;;;;;;19.60;56.90;;;;;;5052148;28;19924;-70
2023/05/28 10:05:41;;;;;;;;;;;19.70;56.80;;;;;;5052217;28;19933;-70
2023/05/28 10:08:08;;;;;;;;;;;19.70;56.40;;;;;;5064819;28;19960;-71
2023/05/28 10:10:35;;;;;;;;;;;19.90;56.40;;;;;;5063028;28;19932;-70
2023/05/28 10:13:02;;;;;;;;;;;19.90;56.30;;;;;;5047740;28;20808;-71
2023/05/28 10:15:29;;;;;;;;;;;20.00;56.00;;;;;;5053685;28;19932;-71
2023/05/28 10:17:57;;;;;;;;;;;20.00;55.70;;;;;;5055457;28;19925;-70
2023/05/28 10:20:25;;;;;;;;;;;20.10;55.60;;;;;;5051851;28;19932;-71
2023/05/28 10:22:52;;;;;;;;;;;20.20;55.50;;;;;;5060903;28;20029;-71
2023/05/28 10:25:18;;;;;;;;;;;20.20;55.40;;;;;;5049020;28;19925;-71
2023/05/28 10:27:48;;;;;;;;;;;20.40;55.40;;;;;;5051246;28;19932;-71
2023/05/28 10:30:29;;;;;;;;;;;20.40;54.50;;;;;;5052492;28;20015;-70
2023/05/28 10:32:58;;;;;;;;;;;20.50;54.40;;;;;;5047563;28;19936;-70
2023/05/28 10:35:24;;;;;;;;;;;20.60;54.40;;;;;;5050532;28;20481;-70
2023/05/28 10:37:51;;;;;;;;;;;20.60;54.40;;;;;;5056021;28;19928;-71
2023/05/28 10:40:23;;;;;;;;;;;20.70;54.30;;;;;;5055646;28;19929;-72
2023/05/28 10:42:49;;;;;;;;;;;20.80;54.00;;;;;;5048481;28;19936;-71
2023/05/28 10:45:16;;;;;;;;;;;20.90;53.80;;;;;;5059036;28;19936;-72
2023/05/28 10:47:51;;;;;;;;;;;20.90;54.30;;;;;;5052551;28;19940;-71
2023/05/28 10:50:19;;;;;;;;;;;21.00;53.70;;;;;;5050534;28;19932;-71
2023/05/28 10:53:01;;;;;;;;;;;21.10;53.60;;;;;;5052305;28;19928;-70
2023/05/28 10:55:27;;;;;;;;;;;21.20;53.30;;;;;;5055355;28;19932;-71
2023/05/28 10:58:06;;;;;;;;;;;21.20;52.80;;;;;;5057821;28;20046;-71
2023/05/28 11:00:40;;;;;;;;;;;21.30;52.60;;;;;;5047426;28;19940;-71
2023/05/28 11:03:07;;;;;;;;;;;21.40;52.60;;;;;;5056545;28;19935;-70
2023/05/28 11:05:35;;;;;;;;;;;21.50;52.30;;;;;;5055741;28;19929;-70
2023/05/28 11:08:02;;;;;;;;;;;21.50;52.00;;;;;;5057486;28;19929;-71
2023/05/28 11:10:29;;;;;;;;;;;21.60;51.90;;;;;;5055213;28;20019;-71
2023/05/28 11:12:55;;;;;;;;;;;21.70;51.80;;;;;;5049912;28;19936;-71
2023/05/28 11:15:22;;;;;;;;;;;21.70;51.80;;;;;;5054191;28;19925;-71
2023/05/28 11:17:49;;;;;;;;;;;21.80;51.60;;;;;;5053318;28;19933;-71
2023/05/28 11:20:17;;;;;;;;;;;21.90;51.40;;;;;;5051282;28;19995;-71
2023/05/28 11:22:45;;;;;;;;;;;21.90;51.30;;;;;;5049924;28;20665;-70
2023/05/28 11:25:12;;;;;;;;;;;22.00;51.30;;;;;;5053078;28;19935;-71
2023/05/28 11:27:40;;;;;;;;;;;22.10;51.10;;;;;;5050770;28;19936;-71
2023/05/28 11:30:08;;;;;;;;;;;22.10;50.90;;;;;;5053059;28;20573;-72
2023/05/28 11:32:35;;;;;;;;;;;22.20;50.50;;;;;;5049906;28;20051;-71
2023/05/28 11:35:02;;;;;;;;;;;22.30;50.00;;;;;;5051764;28;19928;-71
2023/05/28 11:37:29;;;;;;;;;;;22.30;49.90;;;;;;5053818;28;19933;-72
2023/05/28 11:39:57;;;;;;;;;;;22.40;49.70;;;;;;5057181;28;19936;-71
2023/05/28 11:42:24;;;;;;;;;;;22.50;49.90;;;;;;5052166;28;19939;-71
2023/05/28 11:44:51;;;;;;;;;;;22.50;50.00;;;;;;5050081;28;19936;-72
2023/05/28 11:47:18;;;;;;;;;;;22.60;49.80;;;;;;5056800;28;20052;-71
2023/05/28 11:49:46;;;;;;;;;;;22.70;49.70;;;;;;5052664;28;19932;-68
2023/05/28 11:52:13;;;;;;;;;;;22.70;49.40;;;;;;5054452;28;20437;-71
2023/05/28 11:54:40;;;;;;;;;;;22.80;49.30;;;;;;5049251;28;19935;-71
2023/05/28 11:57:08;;;;;;;;;;;22.90;48.90;;;;;;5058982;28;20397;-71
2023/05/28 11:59:35;;;;;;;;;;;22.90;48.60;;;;;;5052019;28;20338;-71
2023/05/28 12:02:12;;;;;;;;;;;23.00;48.50;;;;;;5053592;28;19932;-71
2023/05/28 12:04:38;;;;;;;;;;;23.00;48.20;;;;;;5051487;28;20024;-71
2023/05/28 12:07:05;;;;;;;;;;;23.10;48.20;;;;;;5058541;28;19932;-71
2023/05/28 12:09:32;;;;;;;;;;;23.10;48.00;;;;;;5055702;28;19939;-71
2023/05/28 12:12:03;;;;;;;;;;;23.20;47.90;;;;;;5053394;28;19928;-71
2023/05/28 12:14:32;;;;;;;;;;;23.30;47.90;;;;;;5050930;28;20035;-71
2023/05/28 12:17:05;;;;;;;;;;;23.30;47.70;;;;;;5050300;28;20482;-71
2023/05/28 12:19:32;;;;;;;;;;;23.40;47.10;;;;;;5055887;28;20693;-73
2023/05/28 12:21:59;;;;;;;;;;;23.50;47.10;;;;;;5055829;28;19928;-70
2023/05/28 12:24:27;;;;;;;;;;;23.50;47.10;;;;;;5056445;28;20585;-71
2023/05/28 12:26:53;;;;;;;;;;;23.60;46.80;;;;;;5052478;28;19928;-74
2023/05/28 12:29:20;;;;;;;;;;;23.60;46.60;;;;;;5057905;28;19928;-72
2023/05/28 12:31:48;;;;;;;;;;;23.70;46.80;;;;;;5060203;28;19932;-71
2023/05/28 12:34:14;;;;;;;;;;;23.70;46.80;;;;;;5064170;28;19935;-72
2023/05/28 12:36:41;;;;;;;;;;;23.80;46.60;;;;;;5050957;28;20371;-71
2023/05/28 12:39:08;;;;;;;;;;;23.80;46.40;;;;;;5052868;28;19929;-71
2023/05/28 12:41:35;;;;;;;;;;;23.90;46.30;;;;;;5047912;28;19933;-71
2023/05/28 12:44:01;;;;;;;;;;;24.00;46.30;;;;;;5055872;28;19933;-71
2023/05/28 12:46:28;;;;;;;;;;;24.00;46.20;;;;;;5061867;28;19954;-72
2023/05/28 12:48:55;;;;;;;;;;;24.10;45.70;;;;;;5049027;28;19932;-72
2023/05/28 12:51:22;;;;;;;;;;;24.10;45.50;;;;;;5052770;28;19925;-71
2023/05/28 12:53:48;;;;;;;;;;;24.20;45.60;;;;;;5052314;28;20781;-71
2023/05/28 12:56:17;;;;;;;;;;;24.20;45.40;;;;;;5053800;28;19924;-72
2023/05/28 12:58:44;;;;;;;;;;;24.30;45.70;;;;;;5050735;28;19935;-71
2023/05/28 13:01:11;;;;;;;;;;;24.30;45.80;;;;;;5051059;28;19932;-71
2023/05/28 13:03:37;;;;;;;;;;;24.40;45.50;;;;;;5050852;28;20039;-72
2023/05/28 13:06:06;;;;;;;;;;;24.40;45.50;;;;;;5053763;28;19939;-71
2023/05/28 13:08:33;;;;;;;;;;;24.50;45.40;;;;;;5053008;28;20298;-71
2023/05/28 13:10:59;;;;;;;;;;;24.50;45.40;;;;;;5053570;28;20689;-72
2023/05/28 13:13:26;;;;;;;;;;;24.60;45.30;;;;;;5054033;28;20413;-71
2023/05/28 13:15:52;;;;;;;;;;;24.70;45.00;;;;;;5051456;28;19928;-72
2023/05/28 13:18:19;;;;;;;;;;;24.70;45.00;;;;;;5056952;28;19939;-72
2023/05/28 13:20:46;;;;;;;;;;;24.80;44.00;;;;;;5051905;28;19939;-71
2023/05/28 13:23:14;;;;;;;;;;;24.90;44.00;;;;;;5060028;28;19928;-71
2023/05/28 13:25:40;;;;;;;;;;;25.60;39.50;;;;;;5051734;28;19940;-74
2023/05/28 13:28:07;;;;;;;;;;;26.50;37.30;;;;;;5061707;28;19933;-73
2023/05/28 13:30:33;;;;;;;;;;;26.80;37.80;;;;;;5062936;28;20628;-74
2023/05/28 13:33:00;;;;;;;;;;;26.60;38.50;;;;;;5068702;28;19928;-75
2023/05/28 13:35:27;;;;;;;;;;;26.40;39.60;;;;;;5062846;28;19928;-74
2023/05/28 13:37:55;;;;;;;;;;;26.20;39.80;;;;;;5063481;28;20662;-74
2023/05/28 13:40:24;;;;;;;;;;;26.00;40.30;;;;;;5062950;28;19934;-75
2023/05/28 13:42:50;;;;;;;;;;;25.90;40.20;;;;;;5065436;28;20399;-73
2023/05/28 13:45:17;;;;;;;;;;;25.80;40.90;;;;;;5062089;28;19972;-74
2023/05/28 13:47:44;;;;;;;;;;;25.70;41.90;;;;;;5066468;28;19928;-74
2023/05/28 13:50:10;;;;;;;;;;;25.70;42.90;;;;;;5061542;28;19936;-74
2023/05/28 13:52:37;;;;;;;;;;;25.70;42.80;;;;;;5072050;28;19950;-73
2023/05/28 13:55:04;;;;;;;;;;;25.60;42.40;;;;;;5072580;28;19927;-74
2023/05/28 13:57:32;;;;;;;;;;;25.60;42.40;;;;;;5075827;28;19982;-73
2023/05/28 14:00:00;;;;;;;;;;;25.70;42.40;;;;;;5060241;28;19924;-73
2023/05/28 14:02:26;;;;;;;;;;;25.70;42.60;;;;;;5058930;28;19928;-73
2023/05/28 14:04:53;;;;;;;;;;;25.70;42.80;;;;;;5061514;28;19936;-74
2023/05/28 14:07:20;;;;;;;;;;;25.80;43.70;;;;;;5069807;28;19935;-76
2023/05/28 14:09:46;;;;;;;;;;;25.80;43.30;;;;;;5068317;28;20019;-74
2023/05/28 14:12:13;;;;;;;;;;;25.80;43.20;;;;;;5065575;28;19929;-76
2023/05/28 14:14:41;;;;;;;;;;;25.90;42.90;;;;;;5062764;28;19928;-74
2023/05/28 14:17:07;;;;;;;;;;;26.00;43.40;;;;;;5067160;28;19929;-74